x

Pensacola - 115nm Ese Of Pensacola, Fl (42039) Wave Buoy

8:50pm - Wed 1st Oct 2014 All times are CDT. -5 hours from GMT.

  • Sig Wave height 1.3ft
  • Peak Period 5s
  • Average Period 4s
  • Wind
    11mph
  • Sea Temp 84°f
  • Air Temp 81°f
  • Sea Pressure 1014.9mb
  • Pensacola - 115nm Ese Of Pensacola, Fl
  • Pensacola - 115nm Ese Of Pensacola, Fl

More Historic Weather Station data

Upgrade to MSW Pro to gain access to the past 30 days of data for over 8000 Wavebouys and Weather Stations around the globe.

Join Pro

Comparision Forecast

View Surf forecast
   
Wed 10/01 8:50pm 1.3ft 5s 4s 11
mph
1014.9mb 84f 81f
7:50pm 1.3ft 5s 4s 9 11 mph 1014.1mb 84f 81f
6:50pm 1.6ft 5s 4s 7 9 mph 1013.7mb 84f 81f
5:50pm 1.6ft 5s 4s 4 7 mph 1013.7mb 85f 81f
4:50pm 2ft 5s 4s 4 7 mph 1013.3mb 85f 81f
3:50pm 1.6ft 4s 4s 4 7 mph 1013.1mb 86f 82f
2:50pm 1.3ft 5s 4s 2 4 mph 1013.5mb 86f 82f
1:50pm 1.3ft 5s 4s 2 4 mph 1013.9mb 86f 81f
12:50pm 1.3ft 5s 4s 2 4 mph 1014.3mb 86f 81f
11:50am 1.3ft 4s 4s  -  2 mph 1014.8mb 85f 82f
10:50am 1.3ft 5s 4s  -  2 mph 1014.7mb 83f 82f
9:50am 1.3ft 4s 4s 2 4 mph 1014.3mb 83f 81f
8:50am 1.6ft 4s 4s 2 4 mph 1013.7mb 83f 81f
7:50am 1.6ft 4s 4s 2 4 mph 1013.3mb 83f 81f
6:50am 1.6ft 4s 4s 4 7 mph 1012.7mb 83f 80f
5:50am 1.6ft 4s 4s 7
mph
1012.3mb 83f 80f
4:50am 1.6ft 5s 4s 4 7 mph 1011.8mb 83f 79f
3:50am 2ft 5s 4s 7 9 mph 1011.3mb 83f 79f
2:50am 2ft 5s 4s 9 11 mph 1011.1mb 83f 79f
1:50am 2.5ft 4s 4s 9 11 mph 1011.6mb 83f 79f
12:50am 2.5ft 5s 4s 9 13 mph 1011.6mb 83f 79f
Tue 09/30 11:50pm 2.5ft 4s 4s 11 13 mph 1011.6mb 83f 79f
10:50pm 2.5ft 4s 4s 11 13 mph 1011.9mb 83f 79f
9:50pm 2.5ft 4s 4s 13 16 mph 1011.4mb 83f 79f
8:50pm 2.5ft 4s 4s 13 16 mph 1011.4mb 83f 79f
7:50pm 2.5ft 5s 4s 11 13 mph 1011.3mb 83f 79f
6:50pm 2ft 4s 4s 11 16 mph 1010.9mb 83f 79f
5:50pm 2ft 4s 4s 11 13 mph 1010.4mb 83f 79f
4:50pm 2.5ft 5s 4s 11 13 mph 1010.2mb 83f 79f
3:50pm 2.5ft 5s 4s 11 13 mph 1010.1mb 83f 79f
2:50pm 2.5ft 5s 4s 11 13 mph 1010mb 83f 79f
1:50pm 2.5ft 5s 4s 11 13 mph 1010.4mb 83f 78f
12:50pm 2.5ft 4s 4s 11 13 mph 1011mb 83f 78f
11:50am 2.5ft 5s 4s 13 16 mph 1011.3mb 83f 78f
10:50am 2.5ft 4s 4s 13 16 mph 1011.5mb 83f 79f
9:50am 3ft 5s 4s 13 18 mph 1011.2mb 83f 79f
8:50am 3.5ft 5s 4s 16 18 mph 1010.7mb 83f 79f
7:50am 3ft 5s 4s 18 20 mph 1010.2mb 83f 79f
6:50am 3ft 4s 4s 18 20 mph 1009.8mb 83f 78f
5:50am 2.5ft 4s 4s 20 25 mph 1009mb 82f 78f
4:50am 2ft 4s 4s 9 11 mph 1008.8mb 82f 77f
3:50am 2ft 4s 4s 4 7 mph 1008.5mb 82f 78f
2:50am 2ft 4s 4s 4 7 mph 1008.5mb 82f 79f
1:50am 2ft 4s 4s 7 9 mph 1008.8mb 82f 80f
12:50am 1.6ft 5s 4s 2 4 mph 1009mb 82f 80f
Mon 09/29 11:50pm 2ft 4s 4s 7 9 mph 1009.2mb 82f 80f
10:50pm 2ft 4s 4s 7 9 mph 1009.7mb 82f 80f
9:50pm 2ft 4s 4s 9 11 mph 1009.7mb 82f 80f
8:50pm 2ft 4s 4s 9 11 mph 1010mb 82f 80f
7:50pm 2ft 4s 4s 9 11 mph 1009.8mb 82f 78f
6:50pm 2ft 4s 4s 20 25 mph 1009.8mb 83f 78f
5:50pm 2.5ft 4s 4s 9
mph
1009.7mb 83f 81f
4:50pm 2.5ft 4s 4s 11 16 mph 1009.3mb 83f 81f
3:50pm 2.5ft 4s 4s 11 16 mph 1009.4mb 83f 80f
2:50pm 2.5ft 4s 4s 16 18 mph 1009.5mb 83f 80f
1:50pm 3ft 4s 4s 13 16 mph 1009.7mb 82f 79f
12:50pm 2.5ft 4s 4s 7 11 mph 1012mb 82f 75f
11:50am 2.5ft 5s 3s 11 18 mph 1012.6mb 82f 75f
10:50am 2ft 5s 3s 13
mph
1012.3mb 82f 81f
9:50am 2ft 5s 3s 11 13 mph 1012.1mb 82f 81f
7:50am 2ft 5s 4s 11 13 mph 1011.8mb 82f 81f
6:50am 2.5ft 5s 4s 11 13 mph 1011.5mb 83f 81f
5:50am 2.5ft 5s 4s 11
mph
1011.4mb 83f 81f
4:50am 3ft 5s 4s 11 13 mph 1010.8mb 82f 80f
2:50am 3ft 5s 4s 16 18 mph 1011mb 82f 80f
1:50am 2.5ft 5s 4s 13 18 mph 1011.8mb 82f 79f
12:50am 2.5ft 5s 4s 16 18 mph 1012.1mb 82f 79f
Sun 09/28 11:50pm 2.5ft 6s 4s 13 16 mph 1012.5mb 82f 79f
10:50pm 2.5ft 6s 4s 13 16 mph 1012.8mb 82f 79f
9:50pm 3ft 6s 4s 16 18 mph 1013.2mb 82f 78f
8:50pm 3ft 6s 4s 13 16 mph 1013.8mb 82f 78f
7:50pm 3ft 6s 4s 11 13 mph 1013.5mb 82f 79f
6:50pm 3.5ft 5s 4s 16 18 mph 1013.3mb 82f 78f
5:50pm 3.5ft 5s 4s 18 22 mph 1013.3mb 82f 77f
4:50pm 3.5ft 6s 4s 16 20 mph 1013.3mb 82f 76f
3:50pm 3.5ft 6s 4s 7 11 mph 1013.8mb 82f 75f
2:50pm 4ft 5s 4s 18 20 mph 1012.6mb 82f 76f
1:50pm 4ft 5s 4s 18 20 mph 1013.9mb 83f 77f
12:50pm 5ft 5s 4s 20 25 mph 1014.3mb 83f 76f
11:50am 4.5ft 5s 4s 20 25 mph 1014.7mb 83f 77f
10:50am 4ft 5s 4s 22 27 mph 1014.6mb 83f 78f
9:50am 3.5ft 5s 4s 13 18 mph 1014.9mb 83f 81f
8:50am 3ft 5s 4s 13 18 mph 1014.7mb 83f 82f
7:50am 3.5ft 5s 4s 13 16 mph 1014.3mb 83f 81f
6:50am 3ft 5s 4s 13 16 mph 1014.1mb 83f 81f
5:50am 3.5ft 5s 4s 13 16 mph 1013.9mb 83f 81f
4:50am 3ft 5s 4s 16 18 mph 1013.7mb 83f 80f
3:50am 3ft 5s 4s 13 16 mph 1013.5mb 83f 80f
2:50am 3.5ft 5s 4s 13 16 mph 1013.9mb 83f 80f